1小时前
罗盘
风向 的 风向 330° Calgary International Airport 17L/35R
风: 5 千吨, 2 beaufort
0 0 0.17778093859221 500 0.32299085377319 1.500 0.47075341907445 3.000 0.62138884920159 5.000 0.8022287624727 8.000 0.90566318494517 10.000
FEW 26.000 ft
METAR CYYC 180900Z 33005KT 15SM FEW260 02/M01 A2973 RMK CI1 CI TR SLP082

METAR定义 | 嵌入

24小时趋势

航班类别VFRLIFR
温度22 °C1 °C
风速16 千吨0 千吨
能见度64 公里0 米

更多历史数据

下载我们的安卓应用程序

从你的主屏幕上轻松地访问你的航空天气。
只需一次付费,您就可以获得无广告的体验。

您会帮助我们保持Metar-Taf.com正常运行吗?
您的贡献有助于网站的进一步开发并支付费用。

没有更多广告

您是捐款5美元还是更多?然后,我们将永远不会再向您展示广告,这是我们永恒的感谢!
捐赠前先登录

METAR Calgary International Airport

Calgary International Airport是Calgary,加拿大中的大型机场。 机场有{a,plural,=1{一条跑道} other{#跑道}}: 8/26, 11/29, 17R/35L 和 17L/35R

该报告是针对2021年10月18日 03:00, 当地时间上的Calgary International Airport所做的。

机场观察

风来自北北西 (330°)方向,速度为5 千吨。

可见度为24 公里。

有几云在26.000 ft的高度。 没有观察到天花板。

温度为2 °C,阵风为-2 °C。 露点为-1 °C,相对湿度为81%。 海平面上的气压为1007 压力 (QNH)。

评论

  • 海平面压力为1008,2 压力 (SLP082)
  • CI1 CI TR

白天

今天,太阳从08:05升起,在18:36降落。 这适用于Calgary International Airport,世界夏令时可能有所不同。 当地时间与世界标准时间之间的时差为-6 小时。 夏令时目前正在进行中。

公司介绍

我们没有关于这个机场的公司信息。

体会

到Vliegles.nl去找飞行课程,跳伞和其他飞行体验。 浏览页面,了解Calgary International Airport附近所有可用的活动。 你也可以使用搜索功能来寻找你所在地附近的特定飞行课程、跳伞或其他飞行体验。

您是否要在网站上Calgary International Airport飞行的天气? 阅读更多   自由!